createdAt,value
2022-12-02T00:00:28.978Z,86.98
2022-12-02T00:01:28.968Z,86.67
2022-12-02T00:02:29.156Z,87.08
2022-12-02T00:03:29.042Z,87.50
2022-12-02T00:04:28.930Z,87.50
2022-12-02T00:05:28.928Z,87.50
2022-12-02T00:06:28.902Z,87.43
2022-12-02T00:07:28.934Z,87.50
2022-12-02T00:08:28.888Z,87.60
2022-12-02T00:09:28.870Z,87.96
2022-12-02T00:10:28.874Z,88.48
2022-12-02T00:11:28.872Z,88.37
2022-12-02T00:12:28.853Z,88.27
2022-12-02T00:13:28.829Z,88.23
2022-12-02T00:14:28.817Z,88.23
2022-12-02T00:15:28.816Z,88.12
2022-12-02T00:16:28.849Z,87.96
2022-12-02T00:17:28.787Z,88.43
2022-12-02T00:18:28.804Z,88.23
2022-12-02T00:19:28.764Z,88.23
2022-12-02T00:20:28.754Z,87.71
2022-12-02T00:21:28.756Z,87.08
2022-12-02T00:22:28.745Z,87.71
2022-12-02T00:23:28.718Z,87.60
2022-12-02T00:24:28.709Z,87.19
2022-12-02T00:25:28.700Z,87.33
2022-12-02T00:26:28.702Z,87.75
2022-12-02T00:27:28.680Z,88.48
2022-12-02T00:28:28.673Z,88.27
2022-12-02T00:29:28.664Z,88.68
2022-12-02T00:30:28.651Z,88.58
2022-12-02T00:31:28.783Z,88.33
2022-12-02T00:32:28.632Z,88.48
2022-12-02T00:33:28.618Z,88.58
2022-12-02T00:34:28.687Z,88.79
2022-12-02T00:35:28.597Z,88.96
2022-12-02T00:36:28.600Z,88.96
2022-12-02T00:37:28.573Z,88.12
2022-12-02T00:38:28.567Z,88.48
2022-12-02T00:39:28.551Z,88.43
2022-12-02T00:40:28.544Z,88.12
2022-12-02T00:41:28.541Z,87.71
2022-12-02T00:42:28.521Z,88.02
2022-12-02T00:43:28.512Z,87.71
2022-12-02T00:44:28.627Z,87.50
2022-12-02T00:45:28.509Z,87.92
2022-12-02T00:46:28.536Z,87.33
2022-12-02T00:47:28.467Z,88.48
2022-12-02T00:48:28.458Z,87.96
2022-12-02T00:49:28.447Z,88.27
2022-12-02T00:50:28.465Z,88.58
2022-12-02T00:51:28.436Z,88.43
2022-12-02T00:52:28.416Z,88.37
2022-12-02T00:53:28.407Z,88.48
2022-12-02T00:54:28.399Z,88.43
2022-12-02T00:55:28.383Z,88.43
2022-12-02T00:56:28.391Z,88.68
2022-12-02T00:57:28.366Z,89.10
2022-12-02T00:58:28.352Z,88.23
2022-12-02T00:59:28.343Z,88.68
2022-12-02T01:00:28.334Z,88.68
2022-12-02T01:01:28.396Z,88.27
2022-12-02T01:02:28.405Z,88.68
2022-12-02T01:03:28.302Z,88.58
2022-12-02T01:04:28.290Z,88.58
2022-12-02T01:05:28.285Z,88.23
2022-12-02T01:06:28.305Z,88.06
2022-12-02T01:07:28.344Z,88.79
2022-12-02T01:08:28.251Z,88.96
2022-12-02T01:09:28.238Z,88.89
2022-12-02T01:10:28.251Z,88.48
2022-12-02T01:11:28.236Z,88.48
2022-12-02T01:12:28.209Z,88.54
2022-12-02T01:13:28.194Z,89.00
2022-12-02T01:14:28.188Z,88.75
2022-12-02T01:15:28.180Z,88.96
2022-12-02T01:16:28.276Z,88.33
2022-12-02T01:17:28.159Z,88.54
2022-12-02T01:18:28.146Z,88.96
2022-12-02T01:19:28.133Z,88.43
2022-12-02T01:20:28.123Z,88.48
2022-12-02T01:21:28.119Z,88.54
2022-12-02T01:22:28.119Z,88.96
2022-12-02T01:23:28.091Z,88.96
2022-12-02T01:24:28.087Z,88.64
2022-12-02T01:25:28.072Z,88.85
2022-12-02T01:26:28.071Z,88.85
2022-12-02T01:27:28.049Z,88.96
2022-12-02T01:28:28.038Z,88.75
2022-12-02T01:29:28.034Z,88.54
2022-12-02T01:30:28.020Z,88.64
2022-12-02T01:31:28.065Z,88.64
2022-12-02T01:32:27.998Z,88.40
2022-12-02T01:33:27.986Z,88.40
2022-12-02T01:34:27.978Z,88.43
2022-12-02T01:35:27.965Z,88.43
2022-12-02T01:36:27.967Z,88.43
2022-12-02T01:37:27.942Z,88.40
2022-12-02T01:38:27.952Z,88.54
2022-12-02T01:39:27.922Z,88.19
2022-12-02T01:40:27.918Z,88.81
2022-12-02T01:41:27.912Z,88.81
2022-12-02T01:42:27.895Z,88.81
2022-12-02T01:43:27.877Z,88.64
2022-12-02T01:44:27.870Z,88.40
2022-12-02T01:45:27.899Z,88.60
2022-12-02T01:46:27.862Z,88.81
2022-12-02T01:47:27.834Z,88.09
2022-12-02T01:48:27.836Z,88.19
2022-12-02T01:49:27.827Z,88.29
2022-12-02T01:50:27.812Z,88.60
2022-12-02T01:51:27.802Z,88.50
2022-12-02T01:52:27.787Z,88.40
2022-12-02T01:53:27.775Z,87.98
2022-12-02T01:54:27.781Z,88.19
2022-12-02T01:55:27.778Z,87.98
2022-12-02T01:56:27.756Z,87.98
2022-12-02T01:57:27.734Z,87.98
2022-12-02T01:58:27.727Z,87.88
2022-12-02T01:59:27.714Z,87.77
2022-12-02T02:00:27.704Z,87.88
2022-12-02T02:01:27.821Z,88.19
2022-12-02T02:02:27.741Z,88.29
2022-12-02T02:03:27.672Z,88.92
2022-12-02T02:04:27.665Z,88.71
2022-12-02T02:05:27.645Z,88.92
2022-12-02T02:06:27.652Z,88.29
2022-12-02T02:07:27.649Z,88.40
2022-12-02T02:08:27.620Z,88.09
2022-12-02T02:09:27.602Z,88.33
2022-12-02T02:10:27.623Z,88.29
2022-12-02T02:11:27.594Z,88.19
2022-12-02T02:12:27.572Z,88.40
2022-12-02T02:13:27.567Z,88.50
2022-12-02T02:14:27.552Z,87.88
2022-12-02T02:15:27.539Z,88.92
2022-12-02T02:16:27.633Z,88.19
2022-12-02T02:17:27.519Z,88.85
2022-12-02T02:18:27.511Z,88.81
2022-12-02T02:19:27.497Z,88.81
2022-12-02T02:20:27.490Z,89.02
2022-12-02T02:21:27.485Z,88.81
2022-12-02T02:22:27.468Z,87.88
2022-12-02T02:23:27.459Z,87.98
2022-12-02T02:24:27.445Z,88.64
2022-12-02T02:25:27.434Z,88.64
2022-12-02T02:26:27.451Z,88.54
2022-12-02T02:27:27.418Z,88.75
2022-12-02T02:28:27.414Z,88.33
2022-12-02T02:29:27.392Z,88.79
2022-12-02T02:30:27.401Z,89.00
2022-12-02T02:31:27.393Z,88.96
2022-12-02T02:32:27.363Z,88.79
2022-12-02T02:33:27.360Z,90.14
2022-12-02T02:34:27.343Z,89.73
2022-12-02T02:35:27.336Z,89.83
2022-12-02T02:36:27.324Z,89.94
2022-12-02T02:37:27.323Z,90.45
2022-12-02T02:38:27.295Z,90.25
2022-12-02T02:39:27.292Z,90.25
2022-12-02T02:40:27.277Z,90.04
2022-12-02T02:41:27.286Z,89.73
2022-12-02T02:42:27.270Z,89.73
2022-12-02T02:43:27.245Z,89.73
2022-12-02T02:44:27.232Z,89.73
2022-12-02T02:45:27.224Z,90.14
2022-12-02T02:46:27.300Z,90.14
2022-12-02T02:47:27.203Z,90.04
2022-12-02T02:48:27.191Z,90.31
2022-12-02T02:49:27.186Z,90.25
2022-12-02T02:50:27.169Z,89.94
2022-12-02T02:51:27.173Z,90.25
2022-12-02T02:52:27.150Z,90.25
2022-12-02T02:53:27.139Z,90.25
2022-12-02T02:54:27.130Z,90.56
2022-12-02T02:55:27.118Z,90.45
2022-12-02T02:56:27.169Z,90.77
2022-12-02T02:57:27.096Z,90.14
2022-12-02T02:58:27.107Z,90.77
2022-12-02T02:59:27.077Z,90.35
2022-12-02T03:00:27.064Z,90.52
2022-12-02T03:01:27.164Z,90.72
2022-12-02T03:02:27.118Z,90.14
2022-12-02T03:03:27.039Z,90.25
2022-12-02T03:04:27.025Z,90.25
2022-12-02T03:05:27.014Z,90.31
2022-12-02T03:06:27.012Z,90.45
2022-12-02T03:07:27.080Z,90.41
2022-12-02T03:08:26.985Z,90.25
2022-12-02T03:09:26.974Z,90.52
2022-12-02T03:10:27.009Z,89.94
2022-12-02T03:11:26.964Z,90.25
2022-12-02T03:12:26.937Z,90.35
2022-12-02T03:13:26.928Z,90.25
2022-12-02T03:14:26.939Z,90.66
2022-12-02T03:15:26.933Z,90.56
2022-12-02T03:16:26.963Z,90.87
2022-12-02T03:17:26.888Z,90.62
2022-12-02T03:18:26.880Z,90.77
2022-12-02T03:19:26.871Z,90.31
2022-12-02T03:20:26.854Z,90.41
2022-12-02T03:21:26.859Z,90.25
2022-12-02T03:22:26.831Z,90.45
2022-12-02T03:23:26.824Z,90.25
2022-12-02T03:24:26.813Z,90.14
2022-12-02T03:25:26.807Z,90.35
2022-12-02T03:26:26.812Z,90.14
2022-12-02T03:27:26.796Z,90.25
2022-12-02T03:28:26.773Z,90.56
2022-12-02T03:29:26.763Z,90.41
2022-12-02T03:30:26.769Z,90.56
2022-12-02T03:31:26.780Z,90.45
2022-12-02T03:32:26.740Z,90.04
2022-12-02T03:33:26.725Z,90.08
2022-12-02T03:34:26.846Z,90.29
2022-12-02T03:35:26.700Z,89.98
2022-12-02T03:36:26.695Z,90.29
2022-12-02T03:37:26.676Z,90.29
2022-12-02T03:38:26.665Z,90.29
2022-12-02T03:39:26.655Z,90.29
2022-12-02T03:40:26.643Z,90.81
2022-12-02T03:41:26.650Z,91.22
2022-12-02T03:42:26.621Z,91.12
2022-12-02T03:43:26.630Z,91.33
2022-12-02T03:44:26.606Z,91.33
2022-12-02T03:45:26.591Z,91.64
2022-12-02T03:46:26.673Z,91.85
2022-12-02T03:47:26.569Z,91.75
2022-12-02T03:48:26.557Z,91.96
2022-12-02T03:49:26.549Z,91.75
2022-12-02T03:50:26.548Z,91.53
2022-12-02T03:51:26.548Z,91.81
2022-12-02T03:52:26.517Z,91.85
2022-12-02T03:53:26.507Z,91.64
2022-12-02T03:54:26.499Z,91.50
2022-12-02T03:55:26.490Z,91.50
2022-12-02T03:56:26.475Z,91.75
2022-12-02T03:57:26.473Z,91.81
2022-12-02T03:58:26.453Z,92.06
2022-12-02T03:59:26.444Z,91.91
2022-12-02T04:00:26.431Z,91.81
2022-12-02T04:01:26.474Z,91.71
2022-12-02T04:02:26.534Z,91.71
2022-12-02T04:03:26.406Z,90.70
2022-12-02T04:04:26.389Z,91.02
2022-12-02T04:05:26.382Z,90.85
2022-12-02T04:06:26.381Z,91.27
2022-12-02T04:07:26.417Z,91.85
2022-12-02T04:08:26.350Z,91.68
2022-12-02T04:09:26.339Z,91.64
2022-12-02T04:10:26.328Z,91.68
2022-12-02T04:11:26.317Z,91.78
2022-12-02T04:12:26.317Z,91.78
2022-12-02T04:13:26.304Z,91.89
2022-12-02T04:14:26.312Z,92.10
2022-12-02T04:15:26.273Z,91.58
2022-12-02T04:16:26.357Z,91.47
2022-12-02T04:17:26.272Z,91.68
2022-12-02T04:18:26.266Z,91.58
2022-12-02T04:19:26.231Z,91.06
2022-12-02T04:20:26.225Z,91.02
2022-12-02T04:21:26.211Z,90.70
2022-12-02T04:22:26.209Z,91.16
2022-12-02T04:23:26.193Z,90.81
2022-12-02T04:24:26.180Z,90.81
2022-12-02T04:25:26.167Z,90.29
2022-12-02T04:26:26.157Z,90.12
2022-12-02T04:27:26.158Z,90.44
2022-12-02T04:28:26.142Z,90.22
2022-12-02T04:29:26.133Z,90.44
2022-12-02T04:30:26.115Z,90.12
2022-12-02T04:31:26.189Z,89.39
2022-12-02T04:32:26.110Z,89.66
2022-12-02T04:33:26.084Z,89.76
2022-12-02T04:34:26.101Z,90.50
2022-12-02T04:35:26.067Z,90.50
2022-12-02T04:36:26.053Z,90.08
2022-12-02T04:37:26.054Z,89.04
2022-12-02T04:38:26.030Z,89.04
2022-12-02T04:39:26.030Z,89.04
2022-12-02T04:40:26.018Z,88.73
2022-12-02T04:41:26.016Z,88.52
2022-12-02T04:42:26.003Z,88.58
2022-12-02T04:43:26.001Z,88.93
2022-12-02T04:44:25.966Z,88.93
2022-12-02T04:45:25.961Z,89.10
2022-12-02T04:46:26.055Z,88.58
2022-12-02T04:47:25.951Z,88.37
2022-12-02T04:48:25.925Z,88.89
2022-12-02T04:49:25.916Z,88.37
2022-12-02T04:50:25.927Z,87.96
2022-12-02T04:51:25.895Z,87.85
2022-12-02T04:52:25.986Z,88.17
2022-12-02T04:53:25.876Z,88.27
2022-12-02T04:54:25.863Z,88.27
2022-12-02T04:55:25.855Z,88.48
2022-12-02T04:56:25.867Z,88.12
2022-12-02T04:57:31.178Z,88.48
2022-12-02T04:58:26.819Z,88.79
2022-12-02T04:59:25.816Z,88.89
2022-12-02T05:00:25.798Z,88.17
2022-12-02T05:01:25.796Z,88.17
2022-12-02T05:02:25.882Z,87.43
2022-12-02T05:03:25.881Z,87.54
2022-12-02T05:04:25.810Z,88.10
2022-12-02T05:05:25.749Z,87.58
2022-12-02T05:06:25.757Z,88.20
2022-12-02T05:07:25.780Z,88.73
2022-12-02T05:08:25.719Z,88.62
2022-12-02T05:09:25.704Z,88.52
2022-12-02T05:10:25.692Z,88.52
2022-12-02T05:11:25.683Z,88.62
2022-12-02T05:12:25.689Z,88.42
2022-12-02T05:13:25.666Z,88.31
2022-12-02T05:14:25.651Z,89.25
2022-12-02T05:15:25.639Z,89.56
2022-12-02T05:16:25.691Z,89.14
2022-12-02T05:17:25.628Z,88.83
2022-12-02T05:18:25.607Z,89.35
2022-12-02T05:19:25.603Z,89.25
2022-12-02T05:20:25.587Z,89.18
2022-12-02T05:21:25.577Z,88.62
2022-12-02T05:22:25.594Z,90.08
2022-12-02T05:23:25.573Z,89.76
2022-12-02T05:24:25.548Z,90.19
2022-12-02T05:25:25.535Z,90.08
2022-12-02T05:26:25.527Z,90.08
2022-12-02T05:27:25.538Z,89.35
2022-12-02T05:28:25.506Z,89.04
2022-12-02T05:29:25.497Z,88.93
2022-12-02T05:30:25.494Z,88.73
2022-12-02T05:31:25.538Z,89.04
2022-12-02T05:32:25.469Z,89.04
2022-12-02T05:33:25.452Z,89.04
2022-12-02T05:34:25.440Z,88.83
2022-12-02T05:35:25.431Z,89.25
2022-12-02T05:36:25.419Z,89.45
2022-12-02T05:37:25.419Z,90.04
2022-12-02T05:38:25.483Z,90.08
2022-12-02T05:39:25.388Z,89.31
2022-12-02T05:40:25.377Z,89.00
2022-12-02T05:41:25.370Z,89.00
2022-12-02T05:42:25.372Z,88.89
2022-12-02T05:43:25.349Z,88.58
2022-12-02T05:44:25.361Z,89.00
2022-12-02T05:45:25.325Z,87.54
2022-12-02T05:46:33.049Z,87.33
2022-12-02T05:47:25.312Z,87.33
2022-12-02T05:48:25.288Z,87.54
2022-12-02T05:49:25.281Z,87.02
2022-12-02T05:50:25.282Z,87.33
2022-12-02T05:51:25.264Z,86.50
2022-12-02T05:52:25.257Z,86.96
2022-12-02T05:53:25.243Z,86.91
2022-12-02T05:54:25.248Z,87.02
2022-12-02T05:55:25.215Z,87.02
2022-12-02T05:56:25.202Z,86.81
2022-12-02T05:57:28.174Z,86.91
2022-12-02T05:58:25.183Z,86.81
2022-12-02T05:59:25.176Z,86.67
2022-12-02T06:00:25.163Z,85.67
2022-12-02T06:01:25.164Z,85.67
2022-12-02T06:02:25.344Z,85.46
2022-12-02T06:03:25.320Z,85.67
2022-12-02T06:04:25.119Z,84.94
2022-12-02T06:05:25.114Z,85.46
2022-12-02T06:06:25.099Z,85.56
2022-12-02T06:07:25.206Z,85.46
2022-12-02T06:08:25.082Z,85.67
2022-12-02T06:09:25.069Z,85.56
2022-12-02T06:10:25.072Z,84.52
2022-12-02T06:11:25.049Z,84.83
2022-12-02T06:12:25.045Z,84.31
2022-12-02T06:13:25.098Z,85.04
2022-12-02T06:14:25.014Z,85.14
2022-12-02T06:15:25.008Z,84.94
2022-12-02T06:16:25.040Z,85.25
2022-12-02T06:17:24.994Z,85.67
2022-12-02T06:18:24.975Z,85.56
2022-12-02T06:19:24.962Z,84.11
2022-12-02T06:20:24.953Z,84.52
2022-12-02T06:21:24.951Z,84.52
2022-12-02T06:22:24.950Z,84.63
2022-12-02T06:23:24.920Z,84.63
2022-12-02T06:24:24.908Z,84.42
2022-12-02T06:25:24.926Z,85.04
2022-12-02T06:26:24.971Z,85.46
2022-12-02T06:27:24.888Z,84.73
2022-12-02T06:28:24.866Z,84.42
2022-12-02T06:29:24.858Z,85.25
2022-12-02T06:30:24.845Z,84.94
2022-12-02T06:31:24.895Z,85.04
2022-12-02T06:32:24.839Z,84.73
2022-12-02T06:33:24.817Z,85.04
2022-12-02T06:34:24.806Z,85.67
2022-12-02T06:35:24.800Z,85.67
2022-12-02T06:36:24.786Z,84.42
2022-12-02T06:37:24.794Z,84.52
2022-12-02T06:38:24.763Z,85.56
2022-12-02T06:39:24.757Z,85.88
2022-12-02T06:40:29.148Z,86.19
2022-12-02T06:41:24.731Z,86.15
2022-12-02T06:42:24.747Z,85.94
2022-12-02T06:43:24.718Z,85.83
2022-12-02T06:44:24.702Z,85.94
2022-12-02T06:45:29.433Z,85.77
2022-12-02T06:46:25.710Z,85.04
2022-12-02T06:47:24.677Z,84.42
2022-12-02T06:48:24.672Z,84.52
2022-12-02T06:49:24.645Z,84.42
2022-12-02T06:50:24.641Z,85.14
2022-12-02T06:51:24.626Z,84.73
2022-12-02T06:52:24.626Z,84.73
2022-12-02T06:53:24.606Z,84.52
2022-12-02T06:54:24.603Z,84.42
2022-12-02T06:55:24.585Z,84.42
2022-12-02T06:56:24.578Z,84.31
2022-12-02T06:57:24.571Z,84.52
2022-12-02T06:58:24.573Z,84.52
2022-12-02T06:59:24.540Z,84.42
2022-12-02T07:00:24.532Z,84.21
2022-12-02T07:01:24.566Z,84.52
2022-12-02T07:02:24.584Z,84.63
2022-12-02T07:03:24.503Z,84.73
2022-12-02T07:04:24.491Z,84.63
2022-12-02T07:05:24.477Z,84.42
2022-12-02T07:06:24.483Z,84.73
2022-12-02T07:07:24.493Z,84.90
2022-12-02T07:08:24.449Z,84.90
2022-12-02T07:09:24.436Z,84.52
2022-12-02T07:10:24.428Z,84.38
2022-12-02T07:11:24.419Z,84.00
2022-12-02T07:12:24.418Z,84.90
2022-12-02T07:13:24.394Z,84.90
2022-12-02T07:14:24.413Z,85.11
2022-12-02T07:15:24.377Z,84.59
2022-12-02T07:16:24.413Z,84.83
2022-12-02T07:17:24.364Z,84.31
2022-12-02T07:18:24.345Z,85.00
2022-12-02T07:19:24.344Z,85.14
2022-12-02T07:20:24.323Z,84.90
2022-12-02T07:21:24.312Z,84.48
2022-12-02T07:22:24.352Z,85.00
2022-12-02T07:23:24.314Z,84.69
2022-12-02T07:24:24.279Z,84.48
2022-12-02T07:25:24.267Z,84.73
2022-12-02T07:26:24.258Z,85.00
2022-12-02T07:27:24.255Z,85.11
2022-12-02T07:28:24.238Z,85.46
2022-12-02T07:29:24.229Z,84.94
2022-12-02T07:30:24.324Z,85.46
2022-12-02T07:31:24.278Z,85.56
2022-12-02T07:32:24.211Z,85.98
2022-12-02T07:33:24.188Z,86.08
2022-12-02T07:34:24.552Z,85.56
2022-12-02T07:35:24.168Z,85.67
2022-12-02T07:36:24.154Z,86.29
2022-12-02T07:37:24.146Z,85.98
2022-12-02T07:38:49.894Z,85.56
2022-12-02T07:39:25.124Z,85.56
2022-12-02T07:40:24.113Z,85.25
2022-12-02T07:41:24.157Z,85.77
2022-12-02T07:42:24.091Z,85.56
2022-12-02T07:43:24.099Z,85.56
2022-12-02T07:44:24.073Z,85.56
2022-12-02T07:45:24.060Z,85.46
2022-12-02T07:46:24.100Z,85.56
2022-12-02T07:47:24.046Z,85.67
2022-12-02T07:48:24.039Z,85.46
2022-12-02T07:49:24.017Z,85.25
2022-12-02T07:50:24.007Z,85.46
2022-12-02T07:51:24.000Z,85.77
2022-12-02T07:52:24.026Z,86.40
2022-12-02T07:53:23.985Z,86.19
2022-12-02T07:54:23.969Z,87.02
2022-12-02T07:55:26.510Z,87.23
2022-12-02T07:56:23.950Z,87.02
2022-12-02T07:57:23.932Z,87.12
2022-12-02T07:58:37.103Z,87.54
2022-12-02T07:59:24.913Z,88.37
2022-12-02T08:00:23.908Z,88.06
2022-12-02T08:01:23.898Z,88.89
2022-12-02T08:02:23.900Z,88.79
2022-12-02T08:03:23.879Z,88.79
2022-12-02T08:04:23.927Z,87.99
2022-12-02T08:05:23.854Z,88.52
2022-12-02T08:06:23.857Z,88.27
2022-12-02T08:07:23.899Z,88.52
2022-12-02T08:08:23.833Z,89.00
2022-12-02T08:09:23.807Z,88.48
2022-12-02T08:10:23.802Z,88.48
2022-12-02T08:11:23.785Z,88.06
2022-12-02T08:12:23.776Z,88.79
2022-12-02T08:13:23.774Z,88.83
2022-12-02T08:14:23.765Z,88.89
2022-12-02T08:15:23.743Z,89.31
2022-12-02T08:16:23.848Z,89.31
2022-12-02T08:17:23.724Z,89.20
2022-12-02T08:18:23.748Z,89.10
2022-12-02T08:19:23.708Z,88.48
2022-12-02T08:20:23.696Z,88.37
2022-12-02T08:21:23.682Z,88.52
2022-12-02T08:22:23.673Z,88.48
2022-12-02T08:23:23.669Z,88.52
2022-12-02T08:24:23.653Z,89.45
2022-12-02T08:25:23.638Z,89.56
2022-12-02T08:26:23.635Z,90.14
2022-12-02T08:27:23.615Z,89.62
2022-12-02T08:28:23.615Z,90.14
2022-12-02T08:29:23.594Z,90.14
2022-12-02T08:30:23.595Z,89.52
2022-12-02T08:31:23.666Z,90.25
2022-12-02T08:32:23.574Z,89.69
2022-12-02T08:33:23.571Z,90.04
2022-12-02T08:34:23.569Z,89.31
2022-12-02T08:35:23.534Z,88.89
2022-12-02T08:36:23.523Z,89.00
2022-12-02T08:37:23.541Z,88.89
2022-12-02T08:38:23.511Z,89.00
2022-12-02T08:39:23.507Z,88.27
2022-12-02T08:40:23.480Z,88.06
2022-12-02T08:41:23.494Z,89.00
2022-12-02T08:42:23.460Z,89.31
2022-12-02T08:43:23.460Z,89.41
2022-12-02T08:44:23.438Z,89.00
2022-12-02T08:45:23.430Z,90.04
2022-12-02T08:46:23.497Z,90.29
2022-12-02T08:47:23.429Z,89.41
2022-12-02T08:48:23.430Z,89.35
2022-12-02T08:49:23.955Z,89.41
2022-12-02T08:50:23.496Z,89.14
2022-12-02T08:51:23.382Z,88.89
2022-12-02T08:52:23.376Z,88.68
2022-12-02T08:53:23.517Z,88.62
2022-12-02T08:54:23.378Z,88.37
2022-12-02T08:55:23.367Z,88.52
2022-12-02T08:56:23.321Z,88.48
2022-12-02T08:57:23.328Z,88.68
2022-12-02T08:58:23.321Z,88.17
2022-12-02T08:59:23.292Z,88.73
2022-12-02T09:00:23.392Z,88.37
2022-12-02T09:01:23.360Z,88.58
2022-12-02T09:02:23.292Z,88.58
2022-12-02T09:03:23.262Z,88.79
2022-12-02T09:04:23.227Z,88.48
2022-12-02T09:05:23.226Z,88.48
2022-12-02T09:06:23.226Z,88.37
2022-12-02T09:07:23.246Z,87.96
2022-12-02T09:08:23.195Z,87.43
2022-12-02T09:09:23.177Z,87.43
2022-12-02T09:10:23.266Z,87.65
2022-12-02T09:11:23.152Z,87.02
2022-12-02T09:12:23.222Z,87.33
2022-12-02T09:13:23.142Z,87.12
2022-12-02T09:14:23.125Z,87.43
2022-12-02T09:15:23.117Z,87.02
2022-12-02T09:16:23.149Z,87.33
2022-12-02T09:17:23.089Z,87.43
2022-12-02T09:18:23.090Z,87.12
2022-12-02T09:19:23.070Z,87.54
2022-12-02T09:20:23.142Z,86.91
2022-12-02T09:21:23.048Z,87.08
2022-12-02T09:22:23.066Z,86.67
2022-12-02T09:23:23.034Z,87.08
2022-12-02T09:24:23.024Z,86.98
2022-12-02T09:25:23.005Z,86.35
2022-12-02T09:26:23.001Z,85.63
2022-12-02T09:27:22.993Z,85.31
2022-12-02T09:28:22.995Z,85.42
2022-12-02T09:29:22.965Z,85.83
2022-12-02T09:30:22.959Z,85.63
2022-12-02T09:31:23.006Z,85.31
2022-12-02T09:32:22.935Z,85.73
2022-12-02T09:33:22.931Z,85.73
2022-12-02T09:34:22.915Z,85.28
2022-12-02T09:35:22.899Z,85.17
2022-12-02T09:36:22.894Z,84.96
2022-12-02T09:37:22.879Z,84.38
2022-12-02T09:38:22.898Z,84.38
2022-12-02T09:39:22.859Z,84.38
2022-12-02T09:40:22.875Z,84.34
2022-12-02T09:41:22.837Z,84.59
2022-12-02T09:42:22.835Z,84.48
2022-12-02T09:43:22.838Z,84.27
2022-12-02T09:44:22.810Z,84.55
2022-12-02T09:45:22.795Z,84.59
2022-12-02T09:46:24.839Z,84.48
2022-12-02T09:47:22.779Z,84.59
2022-12-02T09:48:22.772Z,84.38
2022-12-02T09:49:22.756Z,85.83
2022-12-02T09:50:22.748Z,85.52
2022-12-02T09:51:22.733Z,85.38
2022-12-02T09:52:26.101Z,84.23
2022-12-02T09:53:22.721Z,84.96
2022-12-02T09:54:22.723Z,84.96
2022-12-02T09:55:22.689Z,84.90
2022-12-02T09:56:22.679Z,84.69
2022-12-02T09:57:22.673Z,85.11
2022-12-02T09:58:22.670Z,85.11
2022-12-02T09:59:22.650Z,84.69
2022-12-02T10:00:22.655Z,85.00
2022-12-02T10:01:22.736Z,85.63
2022-12-02T10:02:22.768Z,85.52
2022-12-02T10:03:22.658Z,85.63
2022-12-02T10:04:22.597Z,85.52
2022-12-02T10:05:22.590Z,85.63
2022-12-02T10:06:22.574Z,85.77
2022-12-02T10:07:22.637Z,86.25
2022-12-02T10:08:22.557Z,86.29
2022-12-02T10:09:22.558Z,86.40
2022-12-02T10:10:22.549Z,86.50
2022-12-02T10:11:22.522Z,87.02
2022-12-02T10:12:22.516Z,87.02
2022-12-02T10:13:22.501Z,87.33
2022-12-02T10:14:22.500Z,86.50
2022-12-02T10:15:22.482Z,86.50
2022-12-02T10:16:22.586Z,86.46
2022-12-02T10:17:22.461Z,86.46
2022-12-02T10:18:22.449Z,86.46
2022-12-02T10:19:22.446Z,87.02
2022-12-02T10:20:22.428Z,87.29
2022-12-02T10:21:22.424Z,87.02
2022-12-02T10:22:22.407Z,87.96
2022-12-02T10:23:22.403Z,88.89
2022-12-02T10:24:22.425Z,89.10
2022-12-02T10:25:22.374Z,88.48
2022-12-02T10:26:22.384Z,88.48
2022-12-02T10:27:22.355Z,88.68
2022-12-02T10:28:22.345Z,88.37
2022-12-02T10:29:22.341Z,88.58
2022-12-02T10:30:22.325Z,88.58
2022-12-02T10:31:22.471Z,88.58
2022-12-02T10:32:22.301Z,88.17
2022-12-02T10:33:22.291Z,88.27
2022-12-02T10:34:22.290Z,88.48
2022-12-02T10:35:22.269Z,87.65
2022-12-02T10:36:22.265Z,88.06
2022-12-02T10:37:22.249Z,88.37
2022-12-02T10:38:22.239Z,88.06
2022-12-02T10:39:22.239Z,88.48
2022-12-02T10:40:22.218Z,88.48
2022-12-02T10:41:22.208Z,88.06
2022-12-02T10:42:22.213Z,88.43
2022-12-02T10:43:22.185Z,88.96
2022-12-02T10:44:22.199Z,87.65
2022-12-02T10:45:22.164Z,87.54
2022-12-02T10:46:22.255Z,87.43
2022-12-02T10:47:26.257Z,87.75
2022-12-02T10:48:22.134Z,88.37
2022-12-02T10:49:22.136Z,88.17
2022-12-02T10:50:22.113Z,87.96
2022-12-02T10:51:22.167Z,87.33
2022-12-02T10:52:22.094Z,87.43
2022-12-02T10:53:22.086Z,87.43
2022-12-02T10:54:22.109Z,87.50
2022-12-02T10:55:22.063Z,87.75
2022-12-02T10:56:22.056Z,87.75
2022-12-02T10:57:22.041Z,88.37
2022-12-02T10:58:22.051Z,88.37
2022-12-02T10:59:22.038Z,88.37
2022-12-02T11:01:39.529Z,88.89
2022-12-02T11:02:39.442Z,88.58
2022-12-02T11:03:39.393Z,88.58
2022-12-02T11:04:39.393Z,88.68
2022-12-02T11:05:39.374Z,88.06
2022-12-02T11:06:39.399Z,88.58
2022-12-02T11:07:39.395Z,88.48
2022-12-02T11:08:39.338Z,88.37
2022-12-02T11:09:40.689Z,88.48
2022-12-02T11:10:39.320Z,88.48
2022-12-02T11:11:39.310Z,88.42
2022-12-02T11:12:39.294Z,88.73
2022-12-02T11:13:42.656Z,88.31
2022-12-02T11:14:40.316Z,87.96
2022-12-02T11:15:39.271Z,88.06
2022-12-02T11:16:51.318Z,88.42
2022-12-02T11:17:40.244Z,87.37
2022-12-02T11:18:39.233Z,87.58
2022-12-02T11:19:39.236Z,87.27
2022-12-02T11:20:39.211Z,87.06
2022-12-02T11:21:39.204Z,87.48
2022-12-02T11:22:39.187Z,87.48
2022-12-02T11:23:39.178Z,86.75
2022-12-02T11:24:39.179Z,86.75
2022-12-02T11:25:39.163Z,86.85
2022-12-02T11:26:39.145Z,87.37
2022-12-02T11:27:39.136Z,86.96
2022-12-02T11:28:39.123Z,87.02
2022-12-02T11:29:39.141Z,87.65
2022-12-02T11:30:39.102Z,87.12
2022-12-02T11:31:39.165Z,87.54
2022-12-02T11:32:39.082Z,87.54
2022-12-02T11:33:39.072Z,87.08
2022-12-02T11:35:08.600Z,86.91
2022-12-02T11:35:40.050Z,86.40
2022-12-02T11:36:39.040Z,86.60
2022-12-02T11:37:39.028Z,86.60
2022-12-02T11:38:39.017Z,86.50
2022-12-02T11:39:39.016Z,86.50
2022-12-02T11:40:38.997Z,85.98
2022-12-02T11:41:38.989Z,85.88
2022-12-02T11:42:38.974Z,86.19
2022-12-02T11:43:38.966Z,86.71
2022-12-02T11:44:38.963Z,85.35
2022-12-02T11:45:39.022Z,85.35
2022-12-02T11:47:34.061Z,85.88
2022-12-02T11:48:34.057Z,85.67
2022-12-02T11:49:34.060Z,85.77
2022-12-02T11:50:34.028Z,86.40
2022-12-02T11:51:34.023Z,86.08
2022-12-02T11:52:34.001Z,85.98
2022-12-02T11:53:34.011Z,86.40
2022-12-02T11:54:34.014Z,86.91
2022-12-02T11:55:33.971Z,86.91
2022-12-02T11:56:33.968Z,86.60
2022-12-02T11:57:33.975Z,86.08
2022-12-02T11:58:33.952Z,85.88
2022-12-02T11:59:33.980Z,85.31
2022-12-02T12:00:38.042Z,85.88
2022-12-02T12:01:33.933Z,85.67
2022-12-02T12:02:33.983Z,85.98
2022-12-02T12:03:34.003Z,86.29
2022-12-02T12:04:33.887Z,86.29
2022-12-02T12:05:33.869Z,86.43
2022-12-02T12:06:33.857Z,86.85
2022-12-02T12:07:33.914Z,87.02
2022-12-02T12:08:33.950Z,86.60
2022-12-02T12:09:33.847Z,87.02
2022-12-02T12:10:33.823Z,86.81
2022-12-02T12:11:33.813Z,86.91
2022-12-02T12:12:33.808Z,86.91
2022-12-02T12:13:37.106Z,86.85
2022-12-02T12:14:33.796Z,87.16
2022-12-02T12:15:33.763Z,87.48
2022-12-02T12:16:33.864Z,86.85
2022-12-02T12:17:33.756Z,86.96
2022-12-02T12:18:33.819Z,86.96
2022-12-02T12:19:33.738Z,86.50
2022-12-02T12:20:33.727Z,86.22
2022-12-02T12:21:33.705Z,86.19
2022-12-02T12:22:33.694Z,86.12
2022-12-02T12:23:33.764Z,86.40
2022-12-02T12:24:33.680Z,86.85
2022-12-02T12:25:33.663Z,87.54
2022-12-02T12:26:33.660Z,86.81
2022-12-02T12:27:33.636Z,86.91
2022-12-02T12:28:33.648Z,86.40
2022-12-02T12:29:33.639Z,86.19
2022-12-02T12:30:33.692Z,86.29
2022-12-02T12:31:38.322Z,86.19
2022-12-02T12:32:34.653Z,85.60
2022-12-02T12:33:33.604Z,85.29
2022-12-02T12:34:33.578Z,85.60
2022-12-02T12:35:33.553Z,85.91
2022-12-02T12:36:33.553Z,85.50
2022-12-02T12:37:33.538Z,85.39
2022-12-02T12:38:33.523Z,85.60
2022-12-02T12:39:33.532Z,85.60
2022-12-02T12:40:33.517Z,85.60
2022-12-02T12:42:02.795Z,85.50
2022-12-02T12:42:34.475Z,85.81
2022-12-02T12:43:33.504Z,85.60
2022-12-02T12:44:33.545Z,85.60
2022-12-02T12:45:33.497Z,85.71
2022-12-02T12:46:33.510Z,85.71
2022-12-02T12:47:33.446Z,85.60
2022-12-02T12:48:33.460Z,85.60
2022-12-02T12:49:33.548Z,85.91
2022-12-02T12:50:33.403Z,85.50
2022-12-02T12:51:33.405Z,85.39
2022-12-02T12:52:33.416Z,85.60
2022-12-02T12:53:33.369Z,84.98
2022-12-02T12:54:33.370Z,85.71